sensor_id;sensor_type;location;lat;lon;timestamp;P1;durP1;ratioP1;P2;durP2;ratioP2
10162;SDS011;5123;52.556;13.384;2023-02-28T00:01:04;6.00;;;3.90;;
10162;SDS011;5123;52.556;13.384;2023-02-28T00:03:40;5.20;;;3.80;;
10162;SDS011;5123;52.556;13.384;2023-02-28T00:06:15;5.30;;;3.80;;
10162;SDS011;5123;52.556;13.384;2023-02-28T00:08:48;7.70;;;4.10;;
10162;SDS011;5123;52.556;13.384;2023-02-28T00:11:22;4.43;;;3.27;;
10162;SDS011;5123;52.556;13.384;2023-02-28T00:13:55;4.97;;;3.77;;
10162;SDS011;5123;52.556;13.384;2023-02-28T00:16:28;5.17;;;3.77;;
10162;SDS011;5123;52.556;13.384;2023-02-28T00:19:01;6.00;;;3.77;;
10162;SDS011;5123;52.556;13.384;2023-02-28T00:21:33;4.20;;;3.47;;
10162;SDS011;5123;52.556;13.384;2023-02-28T00:24:06;4.97;;;3.60;;
10162;SDS011;5123;52.556;13.384;2023-02-28T00:26:41;5.93;;;3.50;;
10162;SDS011;5123;52.556;13.384;2023-02-28T00:29:14;6.00;;;3.70;;
10162;SDS011;5123;52.556;13.384;2023-02-28T00:31:46;6.47;;;3.87;;
10162;SDS011;5123;52.556;13.384;2023-02-28T00:34:19;4.37;;;3.73;;
10162;SDS011;5123;52.556;13.384;2023-02-28T00:36:52;6.60;;;3.90;;
10162;SDS011;5123;52.556;13.384;2023-02-28T00:39:27;5.23;;;3.83;;
10162;SDS011;5123;52.556;13.384;2023-02-28T00:42:04;6.80;;;3.93;;
10162;SDS011;5123;52.556;13.384;2023-02-28T00:44:37;4.93;;;3.83;;
10162;SDS011;5123;52.556;13.384;2023-02-28T00:47:10;5.73;;;4.33;;
10162;SDS011;5123;52.556;13.384;2023-02-28T00:49:43;6.70;;;4.17;;
10162;SDS011;5123;52.556;13.384;2023-02-28T00:52:18;6.30;;;4.57;;
10162;SDS011;5123;52.556;13.384;2023-02-28T00:54:50;7.23;;;4.23;;
10162;SDS011;5123;52.556;13.384;2023-02-28T00:57:25;5.93;;;4.20;;
10162;SDS011;5123;52.556;13.384;2023-02-28T00:59:58;5.93;;;4.43;;
10162;SDS011;5123;52.556;13.384;2023-02-28T01:02:31;5.93;;;4.30;;
10162;SDS011;5123;52.556;13.384;2023-02-28T01:05:06;8.60;;;4.33;;
10162;SDS011;5123;52.556;13.384;2023-02-28T01:07:39;7.27;;;4.40;;
10162;SDS011;5123;52.556;13.384;2023-02-28T01:10:12;5.73;;;3.77;;
10162;SDS011;5123;52.556;13.384;2023-02-28T01:12:50;7.57;;;4.80;;
10162;SDS011;5123;52.556;13.384;2023-02-28T01:15:23;7.10;;;3.97;;
10162;SDS011;5123;52.556;13.384;2023-02-28T01:17:56;5.83;;;3.83;;
10162;SDS011;5123;52.556;13.384;2023-02-28T01:20:29;7.80;;;4.60;;
10162;SDS011;5123;52.556;13.384;2023-02-28T01:23:04;6.03;;;4.17;;
10162;SDS011;5123;52.556;13.384;2023-02-28T01:25:38;6.90;;;4.57;;
10162;SDS011;5123;52.556;13.384;2023-02-28T01:28:13;5.50;;;4.03;;
10162;SDS011;5123;52.556;13.384;2023-02-28T01:30:50;5.07;;;3.87;;
10162;SDS011;5123;52.556;13.384;2023-02-28T01:33:23;4.83;;;4.13;;
10162;SDS011;5123;52.556;13.384;2023-02-28T01:35:59;6.53;;;4.50;;
10162;SDS011;5123;52.556;13.384;2023-02-28T01:38:33;5.80;;;4.40;;
10162;SDS011;5123;52.556;13.384;2023-02-28T01:41:06;6.47;;;4.70;;
10162;SDS011;5123;52.556;13.384;2023-02-28T01:43:53;5.93;;;3.90;;
10162;SDS011;5123;52.556;13.384;2023-02-28T01:46:27;8.37;;;4.83;;
10162;SDS011;5123;52.556;13.384;2023-02-28T01:49:07;8.57;;;4.23;;
10162;SDS011;5123;52.556;13.384;2023-02-28T01:51:42;7.10;;;4.33;;
10162;SDS011;5123;52.556;13.384;2023-02-28T01:54:20;5.33;;;4.27;;
10162;SDS011;5123;52.556;13.384;2023-02-28T01:56:55;8.27;;;4.80;;
10162;SDS011;5123;52.556;13.384;2023-02-28T01:59:31;4.77;;;3.67;;
10162;SDS011;5123;52.556;13.384;2023-02-28T02:02:06;6.00;;;4.03;;
10162;SDS011;5123;52.556;13.384;2023-02-28T02:04:40;6.90;;;4.63;;
10162;SDS011;5123;52.556;13.384;2023-02-28T02:07:13;8.27;;;4.60;;
10162;SDS011;5123;52.556;13.384;2023-02-28T02:09:46;5.97;;;4.57;;
10162;SDS011;5123;52.556;13.384;2023-02-28T02:12:22;6.37;;;4.00;;
10162;SDS011;5123;52.556;13.384;2023-02-28T02:15:01;7.40;;;4.50;;
10162;SDS011;5123;52.556;13.384;2023-02-28T02:17:38;6.27;;;4.40;;
10162;SDS011;5123;52.556;13.384;2023-02-28T02:20:16;7.67;;;4.90;;
10162;SDS011;5123;52.556;13.384;2023-02-28T02:25:50;8.23;;;4.33;;
10162;SDS011;5123;52.556;13.384;2023-02-28T02:28:34;6.80;;;4.37;;
10162;SDS011;5123;52.556;13.384;2023-02-28T02:31:22;6.47;;;4.83;;
10162;SDS011;5123;52.556;13.384;2023-02-28T02:34:17;7.10;;;4.87;;
10162;SDS011;5123;52.556;13.384;2023-02-28T02:36:57;7.27;;;4.43;;
10162;SDS011;5123;52.556;13.384;2023-02-28T02:39:37;6.77;;;4.60;;
10162;SDS011;5123;52.556;13.384;2023-02-28T02:42:13;6.63;;;5.10;;
10162;SDS011;5123;52.556;13.384;2023-02-28T02:44:50;7.63;;;4.77;;
10162;SDS011;5123;52.556;13.384;2023-02-28T02:47:26;6.90;;;4.70;;
10162;SDS011;5123;52.556;13.384;2023-02-28T02:50:03;7.03;;;4.97;;
10162;SDS011;5123;52.556;13.384;2023-02-28T02:52:38;7.00;;;4.93;;
10162;SDS011;5123;52.556;13.384;2023-02-28T02:55:12;7.43;;;5.30;;
10162;SDS011;5123;52.556;13.384;2023-02-28T02:57:48;6.20;;;5.00;;
10162;SDS011;5123;52.556;13.384;2023-02-28T03:00:23;8.67;;;4.53;;
10162;SDS011;5123;52.556;13.384;2023-02-28T03:02:57;6.70;;;4.90;;
10162;SDS011;5123;52.556;13.384;2023-02-28T03:05:33;7.23;;;4.90;;
10162;SDS011;5123;52.556;13.384;2023-02-28T03:08:08;5.53;;;4.37;;
10162;SDS011;5123;52.556;13.384;2023-02-28T03:10:43;6.80;;;5.30;;
10162;SDS011;5123;52.556;13.384;2023-02-28T03:16:12;8.57;;;6.00;;
10162;SDS011;5123;52.556;13.384;2023-02-28T03:18:51;8.73;;;5.27;;
10162;SDS011;5123;52.556;13.384;2023-02-28T03:21:30;7.93;;;5.43;;
10162;SDS011;5123;52.556;13.384;2023-02-28T03:24:05;9.30;;;5.73;;
10162;SDS011;5123;52.556;13.384;2023-02-28T03:26:41;6.87;;;5.03;;
10162;SDS011;5123;52.556;13.384;2023-02-28T03:29:20;7.77;;;5.40;;
10162;SDS011;5123;52.556;13.384;2023-02-28T03:31:58;7.13;;;4.80;;
10162;SDS011;5123;52.556;13.384;2023-02-28T03:34:33;7.67;;;5.23;;
10162;SDS011;5123;52.556;13.384;2023-02-28T03:37:08;7.27;;;5.30;;
10162;SDS011;5123;52.556;13.384;2023-02-28T03:39:43;8.93;;;5.20;;
10162;SDS011;5123;52.556;13.384;2023-02-28T03:42:18;8.87;;;5.37;;
10162;SDS011;5123;52.556;13.384;2023-02-28T03:44:53;6.83;;;5.50;;
10162;SDS011;5123;52.556;13.384;2023-02-28T03:47:29;7.47;;;4.87;;
10162;SDS011;5123;52.556;13.384;2023-02-28T03:50:05;7.03;;;5.30;;
10162;SDS011;5123;52.556;13.384;2023-02-28T03:52:41;7.73;;;5.13;;
10162;SDS011;5123;52.556;13.384;2023-02-28T03:55:15;8.43;;;5.63;;
10162;SDS011;5123;52.556;13.384;2023-02-28T03:57:52;12.70;;;5.80;;
10162;SDS011;5123;52.556;13.384;2023-02-28T04:00:28;7.03;;;5.13;;
10162;SDS011;5123;52.556;13.384;2023-02-28T04:03:02;9.20;;;5.27;;
10162;SDS011;5123;52.556;13.384;2023-02-28T04:05:43;8.10;;;5.57;;
10162;SDS011;5123;52.556;13.384;2023-02-28T04:08:18;9.30;;;5.50;;
10162;SDS011;5123;52.556;13.384;2023-02-28T04:10:53;8.77;;;5.63;;
10162;SDS011;5123;52.556;13.384;2023-02-28T04:13:27;9.50;;;5.37;;
10162;SDS011;5123;52.556;13.384;2023-02-28T04:16:00;10.50;;;6.17;;
10162;SDS011;5123;52.556;13.384;2023-02-28T04:18:33;13.37;;;5.73;;
10162;SDS011;5123;52.556;13.384;2023-02-28T04:21:06;8.53;;;6.37;;
10162;SDS011;5123;52.556;13.384;2023-02-28T04:23:40;7.43;;;6.10;;
10162;SDS011;5123;52.556;13.384;2023-02-28T04:26:13;9.37;;;5.90;;
10162;SDS011;5123;52.556;13.384;2023-02-28T04:28:45;10.20;;;6.40;;
10162;SDS011;5123;52.556;13.384;2023-02-28T04:31:18;10.27;;;6.60;;
10162;SDS011;5123;52.556;13.384;2023-02-28T04:33:51;8.30;;;5.77;;
10162;SDS011;5123;52.556;13.384;2023-02-28T04:36:26;9.43;;;6.07;;
10162;SDS011;5123;52.556;13.384;2023-02-28T04:39:00;7.83;;;6.07;;
10162;SDS011;5123;52.556;13.384;2023-02-28T04:41:35;8.77;;;6.23;;
10162;SDS011;5123;52.556;13.384;2023-02-28T04:44:08;6.87;;;5.30;;
10162;SDS011;5123;52.556;13.384;2023-02-28T04:46:41;7.50;;;5.50;;
10162;SDS011;5123;52.556;13.384;2023-02-28T04:49:13;10.00;;;6.70;;
10162;SDS011;5123;52.556;13.384;2023-02-28T04:51:46;8.10;;;5.77;;
10162;SDS011;5123;52.556;13.384;2023-02-28T04:54:22;9.43;;;5.93;;
10162;SDS011;5123;52.556;13.384;2023-02-28T04:56:55;9.63;;;6.50;;
10162;SDS011;5123;52.556;13.384;2023-02-28T04:59:28;7.67;;;6.53;;
10162;SDS011;5123;52.556;13.384;2023-02-28T05:02:01;11.53;;;6.80;;
10162;SDS011;5123;52.556;13.384;2023-02-28T05:04:38;12.20;;;7.00;;
10162;SDS011;5123;52.556;13.384;2023-02-28T05:07:11;10.57;;;6.97;;
10162;SDS011;5123;52.556;13.384;2023-02-28T05:09:47;10.83;;;6.80;;
10162;SDS011;5123;52.556;13.384;2023-02-28T05:12:21;11.87;;;6.87;;
10162;SDS011;5123;52.556;13.384;2023-02-28T05:14:54;11.40;;;6.50;;
10162;SDS011;5123;52.556;13.384;2023-02-28T05:17:27;11.87;;;6.70;;
10162;SDS011;5123;52.556;13.384;2023-02-28T05:20:00;8.20;;;6.50;;
10162;SDS011;5123;52.556;13.384;2023-02-28T05:22:45;11.20;;;6.27;;
10162;SDS011;5123;52.556;13.384;2023-02-28T05:25:21;9.17;;;6.40;;
10162;SDS011;5123;52.556;13.384;2023-02-28T05:27:54;9.23;;;6.63;;
10162;SDS011;5123;52.556;13.384;2023-02-28T05:30:28;10.87;;;6.23;;
10162;SDS011;5123;52.556;13.384;2023-02-28T05:33:01;13.63;;;7.03;;
10162;SDS011;5123;52.556;13.384;2023-02-28T05:35:34;10.37;;;6.63;;
10162;SDS011;5123;52.556;13.384;2023-02-28T05:38:10;10.80;;;6.53;;
10162;SDS011;5123;52.556;13.384;2023-02-28T05:40:44;10.83;;;7.47;;
10162;SDS011;5123;52.556;13.384;2023-02-28T05:43:17;11.10;;;7.37;;
10162;SDS011;5123;52.556;13.384;2023-02-28T05:45:49;10.83;;;8.03;;
10162;SDS011;5123;52.556;13.384;2023-02-28T05:48:24;10.67;;;7.03;;
10162;SDS011;5123;52.556;13.384;2023-02-28T05:50:57;12.60;;;7.83;;
10162;SDS011;5123;52.556;13.384;2023-02-28T05:53:30;9.83;;;7.23;;
10162;SDS011;5123;52.556;13.384;2023-02-28T05:56:05;10.87;;;7.60;;
10162;SDS011;5123;52.556;13.384;2023-02-28T05:58:38;13.00;;;7.40;;
10162;SDS011;5123;52.556;13.384;2023-02-28T06:01:21;11.70;;;7.07;;
10162;SDS011;5123;52.556;13.384;2023-02-28T06:03:54;10.40;;;7.50;;
10162;SDS011;5123;52.556;13.384;2023-02-28T06:06:26;12.63;;;6.93;;
10162;SDS011;5123;52.556;13.384;2023-02-28T06:08:59;13.20;;;7.23;;
10162;SDS011;5123;52.556;13.384;2023-02-28T06:11:36;12.30;;;7.37;;
10162;SDS011;5123;52.556;13.384;2023-02-28T06:14:12;10.67;;;7.00;;
10162;SDS011;5123;52.556;13.384;2023-02-28T06:16:46;10.37;;;7.77;;
10162;SDS011;5123;52.556;13.384;2023-02-28T06:19:20;12.07;;;7.50;;
10162;SDS011;5123;52.556;13.384;2023-02-28T06:21:54;12.87;;;8.40;;
10162;SDS011;5123;52.556;13.384;2023-02-28T06:24:28;12.80;;;7.20;;
10162;SDS011;5123;52.556;13.384;2023-02-28T06:27:03;12.20;;;7.93;;
10162;SDS011;5123;52.556;13.384;2023-02-28T06:29:37;14.67;;;7.77;;
10162;SDS011;5123;52.556;13.384;2023-02-28T06:32:11;9.53;;;7.20;;
10162;SDS011;5123;52.556;13.384;2023-02-28T06:34:44;12.90;;;7.90;;
10162;SDS011;5123;52.556;13.384;2023-02-28T06:37:17;14.70;;;7.77;;
10162;SDS011;5123;52.556;13.384;2023-02-28T06:39:50;11.37;;;7.67;;
10162;SDS011;5123;52.556;13.384;2023-02-28T06:42:24;13.77;;;7.97;;
10162;SDS011;5123;52.556;13.384;2023-02-28T06:45:04;13.97;;;8.33;;
10162;SDS011;5123;52.556;13.384;2023-02-28T06:47:41;12.23;;;8.53;;
10162;SDS011;5123;52.556;13.384;2023-02-28T06:52:50;11.87;;;8.17;;
10162;SDS011;5123;52.556;13.384;2023-02-28T06:55:25;12.13;;;8.13;;
10162;SDS011;5123;52.556;13.384;2023-02-28T06:58:02;10.83;;;7.73;;
10162;SDS011;5123;52.556;13.384;2023-02-28T07:00:45;18.83;;;9.10;;
10162;SDS011;5123;52.556;13.384;2023-02-28T07:03:18;12.53;;;8.13;;
10162;SDS011;5123;52.556;13.384;2023-02-28T07:05:51;13.07;;;9.13;;
10162;SDS011;5123;52.556;13.384;2023-02-28T07:08:24;13.30;;;10.03;;
10162;SDS011;5123;52.556;13.384;2023-02-28T07:10:59;15.37;;;8.37;;
10162;SDS011;5123;52.556;13.384;2023-02-28T07:13:33;14.67;;;9.87;;
10162;SDS011;5123;52.556;13.384;2023-02-28T07:16:08;14.43;;;9.60;;
10162;SDS011;5123;52.556;13.384;2023-02-28T07:18:41;14.00;;;9.50;;
10162;SDS011;5123;52.556;13.384;2023-02-28T07:21:16;15.03;;;9.57;;
10162;SDS011;5123;52.556;13.384;2023-02-28T07:23:50;14.27;;;9.53;;
10162;SDS011;5123;52.556;13.384;2023-02-28T07:26:23;14.40;;;9.20;;
10162;SDS011;5123;52.556;13.384;2023-02-28T07:28:58;16.30;;;9.17;;
10162;SDS011;5123;52.556;13.384;2023-02-28T07:31:31;15.10;;;9.37;;
10162;SDS011;5123;52.556;13.384;2023-02-28T07:34:04;16.80;;;11.20;;
10162;SDS011;5123;52.556;13.384;2023-02-28T07:36:36;18.73;;;11.83;;
10162;SDS011;5123;52.556;13.384;2023-02-28T07:39:09;13.83;;;9.53;;
10162;SDS011;5123;52.556;13.384;2023-02-28T07:41:42;16.30;;;9.73;;
10162;SDS011;5123;52.556;13.384;2023-02-28T07:44:16;15.30;;;9.43;;
10162;SDS011;5123;52.556;13.384;2023-02-28T07:46:49;16.07;;;8.80;;
10162;SDS011;5123;52.556;13.384;2023-02-28T07:49:22;13.30;;;9.63;;
10162;SDS011;5123;52.556;13.384;2023-02-28T07:51:57;14.97;;;9.30;;
10162;SDS011;5123;52.556;13.384;2023-02-28T07:54:30;14.93;;;9.37;;
10162;SDS011;5123;52.556;13.384;2023-02-28T07:57:03;16.13;;;9.17;;
10162;SDS011;5123;52.556;13.384;2023-02-28T07:59:37;15.57;;;9.27;;
10162;SDS011;5123;52.556;13.384;2023-02-28T08:02:11;13.60;;;9.63;;
10162;SDS011;5123;52.556;13.384;2023-02-28T08:04:45;13.73;;;9.50;;
10162;SDS011;5123;52.556;13.384;2023-02-28T08:07:19;14.07;;;9.50;;
10162;SDS011;5123;52.556;13.384;2023-02-28T08:09:52;14.13;;;8.80;;
10162;SDS011;5123;52.556;13.384;2023-02-28T08:12:24;13.10;;;8.80;;
10162;SDS011;5123;52.556;13.384;2023-02-28T08:14:58;12.83;;;7.87;;
10162;SDS011;5123;52.556;13.384;2023-02-28T08:17:31;13.97;;;8.20;;
10162;SDS011;5123;52.556;13.384;2023-02-28T08:20:06;11.93;;;7.63;;
10162;SDS011;5123;52.556;13.384;2023-02-28T08:22:40;10.23;;;7.53;;
10162;SDS011;5123;52.556;13.384;2023-02-28T08:25:16;10.73;;;6.60;;
10162;SDS011;5123;52.556;13.384;2023-02-28T08:27:54;11.63;;;6.03;;
10162;SDS011;5123;52.556;13.384;2023-02-28T08:30:30;10.70;;;5.77;;
10162;SDS011;5123;52.556;13.384;2023-02-28T08:33:03;12.37;;;6.10;;
10162;SDS011;5123;52.556;13.384;2023-02-28T08:35:39;8.47;;;5.90;;
10162;SDS011;5123;52.556;13.384;2023-02-28T08:38:11;9.50;;;6.00;;
10162;SDS011;5123;52.556;13.384;2023-02-28T08:40:44;10.70;;;5.87;;
10162;SDS011;5123;52.556;13.384;2023-02-28T08:43:17;9.30;;;5.27;;
10162;SDS011;5123;52.556;13.384;2023-02-28T08:45:52;6.43;;;4.73;;
10162;SDS011;5123;52.556;13.384;2023-02-28T08:48:33;6.77;;;4.40;;
10162;SDS011;5123;52.556;13.384;2023-02-28T08:51:07;8.83;;;3.90;;
10162;SDS011;5123;52.556;13.384;2023-02-28T08:53:40;6.90;;;3.20;;
10162;SDS011;5123;52.556;13.384;2023-02-28T08:56:14;4.33;;;3.13;;
10162;SDS011;5123;52.556;13.384;2023-02-28T08:58:48;3.30;;;2.27;;
10162;SDS011;5123;52.556;13.384;2023-02-28T09:01:23;4.60;;;2.50;;
10162;SDS011;5123;52.556;13.384;2023-02-28T09:03:58;3.07;;;2.17;;
10162;SDS011;5123;52.556;13.384;2023-02-28T09:06:30;3.80;;;2.70;;
10162;SDS011;5123;52.556;13.384;2023-02-28T09:09:04;3.40;;;3.00;;
10162;SDS011;5123;52.556;13.384;2023-02-28T09:11:38;3.97;;;3.23;;
10162;SDS011;5123;52.556;13.384;2023-02-28T09:14:11;4.53;;;3.23;;
10162;SDS011;5123;52.556;13.384;2023-02-28T09:16:47;5.40;;;3.57;;
10162;SDS011;5123;52.556;13.384;2023-02-28T09:19:20;4.83;;;2.83;;
10162;SDS011;5123;52.556;13.384;2023-02-28T09:21:53;3.90;;;2.80;;
10162;SDS011;5123;52.556;13.384;2023-02-28T09:24:29;5.03;;;3.27;;
10162;SDS011;5123;52.556;13.384;2023-02-28T09:27:03;4.07;;;2.83;;
10162;SDS011;5123;52.556;13.384;2023-02-28T09:29:36;5.20;;;3.00;;
10162;SDS011;5123;52.556;13.384;2023-02-28T09:32:10;5.27;;;3.00;;
10162;SDS011;5123;52.556;13.384;2023-02-28T09:34:43;4.00;;;2.13;;
10162;SDS011;5123;52.556;13.384;2023-02-28T09:37:16;4.43;;;2.40;;
10162;SDS011;5123;52.556;13.384;2023-02-28T09:39:49;4.57;;;2.33;;
10162;SDS011;5123;52.556;13.384;2023-02-28T09:42:23;5.97;;;2.90;;
10162;SDS011;5123;52.556;13.384;2023-02-28T09:44:58;6.37;;;2.87;;
10162;SDS011;5123;52.556;13.384;2023-02-28T09:47:38;2.93;;;2.47;;
10162;SDS011;5123;52.556;13.384;2023-02-28T09:50:17;3.27;;;2.57;;
10162;SDS011;5123;52.556;13.384;2023-02-28T09:52:53;2.33;;;2.13;;
10162;SDS011;5123;52.556;13.384;2023-02-28T09:55:28;3.00;;;2.27;;
10162;SDS011;5123;52.556;13.384;2023-02-28T09:58:14;7.10;;;2.90;;
10162;SDS011;5123;52.556;13.384;2023-02-28T10:00:51;2.27;;;1.87;;
10162;SDS011;5123;52.556;13.384;2023-02-28T10:03:30;10.43;;;2.70;;
10162;SDS011;5123;52.556;13.384;2023-02-28T10:06:09;4.13;;;2.80;;
10162;SDS011;5123;52.556;13.384;2023-02-28T10:08:45;3.07;;;2.17;;
10162;SDS011;5123;52.556;13.384;2023-02-28T10:11:23;8.90;;;2.67;;
10162;SDS011;5123;52.556;13.384;2023-02-28T10:13:58;4.17;;;2.30;;
10162;SDS011;5123;52.556;13.384;2023-02-28T10:16:34;4.13;;;2.40;;
10162;SDS011;5123;52.556;13.384;2023-02-28T10:19:11;9.53;;;2.47;;
10162;SDS011;5123;52.556;13.384;2023-02-28T10:21:49;4.43;;;2.40;;
10162;SDS011;5123;52.556;13.384;2023-02-28T10:24:28;3.80;;;1.80;;
10162;SDS011;5123;52.556;13.384;2023-02-28T10:27:05;2.83;;;2.23;;
10162;SDS011;5123;52.556;13.384;2023-02-28T10:29:46;3.93;;;3.17;;
10162;SDS011;5123;52.556;13.384;2023-02-28T10:32:20;2.93;;;2.63;;
10162;SDS011;5123;52.556;13.384;2023-02-28T10:34:55;3.57;;;2.50;;
10162;SDS011;5123;52.556;13.384;2023-02-28T10:37:29;5.33;;;2.90;;
10162;SDS011;5123;52.556;13.384;2023-02-28T10:40:07;4.80;;;2.70;;
10162;SDS011;5123;52.556;13.384;2023-02-28T10:42:57;6.43;;;2.10;;
10162;SDS011;5123;52.556;13.384;2023-02-28T10:45:31;3.10;;;2.50;;
10162;SDS011;5123;52.556;13.384;2023-02-28T10:48:06;3.97;;;2.30;;
10162;SDS011;5123;52.556;13.384;2023-02-28T10:50:59;2.13;;;1.93;;
10162;SDS011;5123;52.556;13.384;2023-02-28T10:53:37;3.53;;;2.27;;
10162;SDS011;5123;52.556;13.384;2023-02-28T10:56:31;4.60;;;2.57;;
10162;SDS011;5123;52.556;13.384;2023-02-28T10:59:22;2.40;;;1.97;;
10162;SDS011;5123;52.556;13.384;2023-02-28T11:01:58;3.00;;;2.30;;
10162;SDS011;5123;52.556;13.384;2023-02-28T11:04:35;2.63;;;2.10;;
10162;SDS011;5123;52.556;13.384;2023-02-28T11:07:17;2.80;;;2.20;;
10162;SDS011;5123;52.556;13.384;2023-02-28T11:09:55;5.50;;;2.40;;
10162;SDS011;5123;52.556;13.384;2023-02-28T11:12:29;5.00;;;2.00;;
10162;SDS011;5123;52.556;13.384;2023-02-28T11:15:19;3.20;;;1.90;;
10162;SDS011;5123;52.556;13.384;2023-02-28T11:17:54;2.80;;;2.00;;
10162;SDS011;5123;52.556;13.384;2023-02-28T11:20:31;5.40;;;4.87;;
10162;SDS011;5123;52.556;13.384;2023-02-28T11:23:06;4.27;;;2.67;;
10162;SDS011;5123;52.556;13.384;2023-02-28T11:25:46;7.03;;;4.67;;
10162;SDS011;5123;52.556;13.384;2023-02-28T11:28:24;6.43;;;3.70;;
10162;SDS011;5123;52.556;13.384;2023-02-28T11:31:09;3.23;;;2.80;;
10162;SDS011;5123;52.556;13.384;2023-02-28T11:33:48;3.27;;;2.33;;
10162;SDS011;5123;52.556;13.384;2023-02-28T11:36:22;3.20;;;2.10;;
10162;SDS011;5123;52.556;13.384;2023-02-28T11:38:58;3.47;;;2.10;;
10162;SDS011;5123;52.556;13.384;2023-02-28T11:41:37;3.00;;;2.70;;
10162;SDS011;5123;52.556;13.384;2023-02-28T11:44:20;4.03;;;2.60;;
10162;SDS011;5123;52.556;13.384;2023-02-28T11:46:58;5.20;;;2.47;;
10162;SDS011;5123;52.556;13.384;2023-02-28T11:49:32;3.37;;;2.30;;
10162;SDS011;5123;52.556;13.384;2023-02-28T11:52:12;3.33;;;2.80;;
10162;SDS011;5123;52.556;13.384;2023-02-28T11:54:57;5.30;;;3.23;;
10162;SDS011;5123;52.556;13.384;2023-02-28T11:57:43;5.10;;;2.50;;
10162;SDS011;5123;52.556;13.384;2023-02-28T12:00:27;3.63;;;2.90;;
10162;SDS011;5123;52.556;13.384;2023-02-28T12:03:04;3.67;;;2.80;;
10162;SDS011;5123;52.556;13.384;2023-02-28T12:05:44;5.30;;;3.73;;
10162;SDS011;5123;52.556;13.384;2023-02-28T12:08:22;3.77;;;2.73;;
10162;SDS011;5123;52.556;13.384;2023-02-28T12:11:03;4.33;;;3.93;;
10162;SDS011;5123;52.556;13.384;2023-02-28T12:13:43;4.23;;;3.13;;
10162;SDS011;5123;52.556;13.384;2023-02-28T12:16:20;4.40;;;2.60;;
10162;SDS011;5123;52.556;13.384;2023-02-28T12:19:00;4.97;;;3.00;;
10162;SDS011;5123;52.556;13.384;2023-02-28T12:21:38;4.40;;;2.90;;
10162;SDS011;5123;52.556;13.384;2023-02-28T12:24:20;4.80;;;2.90;;
10162;SDS011;5123;52.556;13.384;2023-02-28T12:26:58;4.87;;;3.10;;
10162;SDS011;5123;52.556;13.384;2023-02-28T12:29:34;5.27;;;3.20;;
10162;SDS011;5123;52.556;13.384;2023-02-28T12:32:15;4.10;;;3.57;;
10162;SDS011;5123;52.556;13.384;2023-02-28T12:34:49;4.07;;;3.10;;
10162;SDS011;5123;52.556;13.384;2023-02-28T12:37:25;3.53;;;2.63;;
10162;SDS011;5123;52.556;13.384;2023-02-28T12:40:00;4.03;;;3.20;;
10162;SDS011;5123;52.556;13.384;2023-02-28T12:42:36;3.30;;;2.87;;
10162;SDS011;5123;52.556;13.384;2023-02-28T12:45:12;5.53;;;3.17;;
10162;SDS011;5123;52.556;13.384;2023-02-28T12:47:49;5.07;;;2.73;;
10162;SDS011;5123;52.556;13.384;2023-02-28T12:50:23;5.03;;;3.43;;
10162;SDS011;5123;52.556;13.384;2023-02-28T12:52:58;7.80;;;3.30;;
10162;SDS011;5123;52.556;13.384;2023-02-28T12:55:38;4.13;;;3.03;;
10162;SDS011;5123;52.556;13.384;2023-02-28T12:58:15;3.60;;;3.30;;
10162;SDS011;5123;52.556;13.384;2023-02-28T13:00:59;4.67;;;3.23;;
10162;SDS011;5123;52.556;13.384;2023-02-28T13:03:45;4.80;;;3.30;;
10162;SDS011;5123;52.556;13.384;2023-02-28T13:06:36;5.33;;;3.70;;
10162;SDS011;5123;52.556;13.384;2023-02-28T13:09:14;7.63;;;3.50;;
10162;SDS011;5123;52.556;13.384;2023-02-28T13:11:47;5.00;;;4.20;;
10162;SDS011;5123;52.556;13.384;2023-02-28T13:14:26;3.97;;;3.53;;
10162;SDS011;5123;52.556;13.384;2023-02-28T13:17:02;4.83;;;3.00;;
10162;SDS011;5123;52.556;13.384;2023-02-28T13:19:45;4.43;;;3.63;;
10162;SDS011;5123;52.556;13.384;2023-02-28T13:22:20;4.50;;;3.27;;
10162;SDS011;5123;52.556;13.384;2023-02-28T13:24:56;4.30;;;3.17;;
10162;SDS011;5123;52.556;13.384;2023-02-28T13:27:36;5.33;;;3.50;;
10162;SDS011;5123;52.556;13.384;2023-02-28T13:35:52;5.30;;;3.73;;
10162;SDS011;5123;52.556;13.384;2023-02-28T13:38:34;4.20;;;3.63;;
10162;SDS011;5123;52.556;13.384;2023-02-28T13:44:02;7.67;;;3.80;;
10162;SDS011;5123;52.556;13.384;2023-02-28T13:49:40;3.37;;;3.07;;
10162;SDS011;5123;52.556;13.384;2023-02-28T13:52:16;3.63;;;3.03;;
10162;SDS011;5123;52.556;13.384;2023-02-28T13:57:49;6.53;;;3.20;;
10162;SDS011;5123;52.556;13.384;2023-02-28T14:00:30;4.87;;;3.50;;
10162;SDS011;5123;52.556;13.384;2023-02-28T14:06:13;38.43;;;22.63;;
10162;SDS011;5123;52.556;13.384;2023-02-28T14:08:50;9.50;;;5.23;;
10162;SDS011;5123;52.556;13.384;2023-02-28T14:11:30;9.10;;;5.57;;
10162;SDS011;5123;52.556;13.384;2023-02-28T14:14:07;4.33;;;3.20;;
10162;SDS011;5123;52.556;13.384;2023-02-28T14:16:41;3.70;;;3.27;;
10162;SDS011;5123;52.556;13.384;2023-02-28T14:19:19;5.03;;;3.70;;
10162;SDS011;5123;52.556;13.384;2023-02-28T14:21:59;4.00;;;2.90;;
10162;SDS011;5123;52.556;13.384;2023-02-28T14:24:51;3.50;;;3.20;;
10162;SDS011;5123;52.556;13.384;2023-02-28T14:27:35;3.43;;;2.93;;
10162;SDS011;5123;52.556;13.384;2023-02-28T14:35:57;3.83;;;2.93;;
10162;SDS011;5123;52.556;13.384;2023-02-28T14:38:35;5.27;;;3.40;;
10162;SDS011;5123;52.556;13.384;2023-02-28T14:41:14;3.57;;;3.27;;
10162;SDS011;5123;52.556;13.384;2023-02-28T14:43:53;3.53;;;2.97;;
10162;SDS011;5123;52.556;13.384;2023-02-28T14:46:28;4.77;;;2.80;;
10162;SDS011;5123;52.556;13.384;2023-02-28T14:49:03;4.87;;;2.97;;
10162;SDS011;5123;52.556;13.384;2023-02-28T14:51:36;4.50;;;3.13;;
10162;SDS011;5123;52.556;13.384;2023-02-28T14:54:12;4.03;;;2.90;;
10162;SDS011;5123;52.556;13.384;2023-02-28T14:56:50;3.93;;;2.90;;
10162;SDS011;5123;52.556;13.384;2023-02-28T14:59:25;3.80;;;2.90;;
10162;SDS011;5123;52.556;13.384;2023-02-28T15:02:13;4.93;;;2.70;;
10162;SDS011;5123;52.556;13.384;2023-02-28T15:04:55;3.07;;;2.60;;
10162;SDS011;5123;52.556;13.384;2023-02-28T15:07:28;3.00;;;2.70;;
10162;SDS011;5123;52.556;13.384;2023-02-28T15:10:08;4.07;;;3.37;;
10162;SDS011;5123;52.556;13.384;2023-02-28T15:12:43;4.37;;;2.80;;
10162;SDS011;5123;52.556;13.384;2023-02-28T15:15:18;4.50;;;2.97;;
10162;SDS011;5123;52.556;13.384;2023-02-28T15:18:06;5.80;;;3.70;;
10162;SDS011;5123;52.556;13.384;2023-02-28T15:20:40;3.80;;;3.20;;
10162;SDS011;5123;52.556;13.384;2023-02-28T15:23:16;3.40;;;3.10;;
10162;SDS011;5123;52.556;13.384;2023-02-28T15:25:49;5.67;;;3.63;;
10162;SDS011;5123;52.556;13.384;2023-02-28T15:28:26;5.53;;;3.60;;
10162;SDS011;5123;52.556;13.384;2023-02-28T15:30:59;8.10;;;5.30;;
10162;SDS011;5123;52.556;13.384;2023-02-28T15:33:33;6.87;;;4.23;;
10162;SDS011;5123;52.556;13.384;2023-02-28T15:36:11;6.80;;;3.90;;
10162;SDS011;5123;52.556;13.384;2023-02-28T15:38:49;4.60;;;3.60;;
10162;SDS011;5123;52.556;13.384;2023-02-28T15:41:26;5.60;;;3.80;;
10162;SDS011;5123;52.556;13.384;2023-02-28T15:44:24;4.33;;;3.60;;
10162;SDS011;5123;52.556;13.384;2023-02-28T15:46:59;6.53;;;3.80;;
10162;SDS011;5123;52.556;13.384;2023-02-28T15:49:39;10.60;;;7.20;;
10162;SDS011;5123;52.556;13.384;2023-02-28T15:52:16;10.00;;;6.80;;
10162;SDS011;5123;52.556;13.384;2023-02-28T15:54:50;12.40;;;7.97;;
10162;SDS011;5123;52.556;13.384;2023-02-28T15:57:23;6.87;;;4.90;;
10162;SDS011;5123;52.556;13.384;2023-02-28T16:00:00;6.90;;;4.77;;
10162;SDS011;5123;52.556;13.384;2023-02-28T16:02:36;6.60;;;3.83;;
10162;SDS011;5123;52.556;13.384;2023-02-28T16:05:21;4.43;;;3.60;;
10162;SDS011;5123;52.556;13.384;2023-02-28T16:08:00;5.70;;;4.07;;